sensor_id;sensor_type;location;lat;lon;timestamp;P1;durP1;ratioP1;P2;durP2;ratioP2
46322;SDS011;32044;52.386;13.278;2023-04-30T00:00:05;7.03;;;4.32;;
46322;SDS011;32044;52.386;13.278;2023-04-30T00:02:35;9.98;;;5.13;;
46322;SDS011;32044;52.386;13.278;2023-04-30T00:05:03;8.10;;;5.47;;
46322;SDS011;32044;52.386;13.278;2023-04-30T00:07:31;9.60;;;5.00;;
46322;SDS011;32044;52.386;13.278;2023-04-30T00:09:59;8.52;;;5.15;;
46322;SDS011;32044;52.386;13.278;2023-04-30T00:12:26;8.48;;;5.18;;
46322;SDS011;32044;52.386;13.278;2023-04-30T00:14:55;11.73;;;6.00;;
46322;SDS011;32044;52.386;13.278;2023-04-30T00:17:22;15.85;;;5.10;;
46322;SDS011;32044;52.386;13.278;2023-04-30T00:19:50;10.50;;;4.85;;
46322;SDS011;32044;52.386;13.278;2023-04-30T00:22:18;7.32;;;4.47;;
46322;SDS011;32044;52.386;13.278;2023-04-30T00:24:46;10.20;;;5.13;;
46322;SDS011;32044;52.386;13.278;2023-04-30T00:27:13;8.45;;;4.47;;
46322;SDS011;32044;52.386;13.278;2023-04-30T00:29:41;14.43;;;4.68;;
46322;SDS011;32044;52.386;13.278;2023-04-30T00:32:10;10.57;;;4.72;;
46322;SDS011;32044;52.386;13.278;2023-04-30T00:34:37;7.95;;;4.63;;
46322;SDS011;32044;52.386;13.278;2023-04-30T00:37:05;10.20;;;4.00;;
46322;SDS011;32044;52.386;13.278;2023-04-30T00:39:32;10.38;;;3.97;;
46322;SDS011;32044;52.386;13.278;2023-04-30T00:42:00;10.32;;;4.28;;
46322;SDS011;32044;52.386;13.278;2023-04-30T00:44:27;4.60;;;3.53;;
46322;SDS011;32044;52.386;13.278;2023-04-30T00:46:55;7.47;;;3.70;;
46322;SDS011;32044;52.386;13.278;2023-04-30T00:49:23;6.45;;;3.63;;
46322;SDS011;32044;52.386;13.278;2023-04-30T00:51:51;9.25;;;3.78;;
46322;SDS011;32044;52.386;13.278;2023-04-30T00:54:19;8.50;;;3.75;;
46322;SDS011;32044;52.386;13.278;2023-04-30T00:56:47;5.40;;;3.28;;
46322;SDS011;32044;52.386;13.278;2023-04-30T00:59:14;9.88;;;3.80;;
46322;SDS011;32044;52.386;13.278;2023-04-30T01:01:42;7.78;;;4.18;;
46322;SDS011;32044;52.386;13.278;2023-04-30T01:04:10;10.73;;;3.47;;
46322;SDS011;32044;52.386;13.278;2023-04-30T01:06:39;12.98;;;3.88;;
46322;SDS011;32044;52.386;13.278;2023-04-30T01:09:08;11.07;;;4.15;;
46322;SDS011;32044;52.386;13.278;2023-04-30T01:11:39;8.23;;;3.50;;
46322;SDS011;32044;52.386;13.278;2023-04-30T01:14:16;10.15;;;4.10;;
46322;SDS011;32044;52.386;13.278;2023-04-30T01:16:50;9.50;;;3.05;;
46322;SDS011;32044;52.386;13.278;2023-04-30T01:19:26;9.52;;;3.40;;
46322;SDS011;32044;52.386;13.278;2023-04-30T01:21:58;9.48;;;3.05;;
46322;SDS011;32044;52.386;13.278;2023-04-30T01:24:31;10.73;;;3.25;;
46322;SDS011;32044;52.386;13.278;2023-04-30T01:27:12;11.43;;;3.58;;
46322;SDS011;32044;52.386;13.278;2023-04-30T01:29:46;12.18;;;3.85;;
46322;SDS011;32044;52.386;13.278;2023-04-30T01:32:14;12.48;;;3.22;;
46322;SDS011;32044;52.386;13.278;2023-04-30T01:34:41;13.55;;;3.63;;
46322;SDS011;32044;52.386;13.278;2023-04-30T01:37:11;17.30;;;3.88;;
46322;SDS011;32044;52.386;13.278;2023-04-30T01:39:47;14.45;;;3.85;;
46322;SDS011;32044;52.386;13.278;2023-04-30T01:42:23;7.65;;;3.75;;
46322;SDS011;32044;52.386;13.278;2023-04-30T01:45:06;11.25;;;3.10;;
46322;SDS011;32044;52.386;13.278;2023-04-30T01:47:40;7.45;;;3.38;;
46322;SDS011;32044;52.386;13.278;2023-04-30T01:50:15;9.43;;;3.83;;
46322;SDS011;32044;52.386;13.278;2023-04-30T01:52:49;16.38;;;3.90;;
46322;SDS011;32044;52.386;13.278;2023-04-30T01:55:19;9.70;;;3.70;;
46322;SDS011;32044;52.386;13.278;2023-04-30T01:57:50;7.95;;;3.13;;
46322;SDS011;32044;52.386;13.278;2023-04-30T02:00:23;8.75;;;3.60;;
46322;SDS011;32044;52.386;13.278;2023-04-30T02:02:52;8.32;;;3.75;;
46322;SDS011;32044;52.386;13.278;2023-04-30T02:05:19;10.05;;;3.30;;
46322;SDS011;32044;52.386;13.278;2023-04-30T02:07:48;8.20;;;3.60;;
46322;SDS011;32044;52.386;13.278;2023-04-30T02:13:17;8.40;;;3.42;;
46322;SDS011;32044;52.386;13.278;2023-04-30T02:15:46;8.75;;;3.47;;
46322;SDS011;32044;52.386;13.278;2023-04-30T02:18:14;9.05;;;3.55;;
46322;SDS011;32044;52.386;13.278;2023-04-30T02:20:41;6.10;;;3.17;;
46322;SDS011;32044;52.386;13.278;2023-04-30T02:23:09;9.23;;;3.25;;
46322;SDS011;32044;52.386;13.278;2023-04-30T02:25:36;7.78;;;2.75;;
46322;SDS011;32044;52.386;13.278;2023-04-30T02:28:04;6.60;;;3.55;;
46322;SDS011;32044;52.386;13.278;2023-04-30T02:30:31;9.25;;;3.42;;
46322;SDS011;32044;52.386;13.278;2023-04-30T02:33:00;11.48;;;3.47;;
46322;SDS011;32044;52.386;13.278;2023-04-30T02:35:28;7.57;;;3.78;;
46322;SDS011;32044;52.386;13.278;2023-04-30T02:37:56;5.75;;;3.30;;
46322;SDS011;32044;52.386;13.278;2023-04-30T02:40:23;9.23;;;3.17;;
46322;SDS011;32044;52.386;13.278;2023-04-30T02:42:51;14.90;;;4.13;;
46322;SDS011;32044;52.386;13.278;2023-04-30T02:45:21;9.68;;;3.47;;
46322;SDS011;32044;52.386;13.278;2023-04-30T02:47:48;8.63;;;3.33;;
46322;SDS011;32044;52.386;13.278;2023-04-30T02:50:17;7.00;;;3.00;;
46322;SDS011;32044;52.386;13.278;2023-04-30T02:52:45;7.18;;;3.70;;
46322;SDS011;32044;52.386;13.278;2023-04-30T02:55:13;9.25;;;3.63;;
46322;SDS011;32044;52.386;13.278;2023-04-30T02:57:40;11.38;;;4.00;;
46322;SDS011;32044;52.386;13.278;2023-04-30T03:00:08;6.68;;;3.35;;
46322;SDS011;32044;52.386;13.278;2023-04-30T03:02:36;6.55;;;3.67;;
46322;SDS011;32044;52.386;13.278;2023-04-30T03:05:05;13.43;;;3.85;;
46322;SDS011;32044;52.386;13.278;2023-04-30T03:07:34;10.75;;;4.57;;
46322;SDS011;32044;52.386;13.278;2023-04-30T03:10:02;8.70;;;4.00;;
46322;SDS011;32044;52.386;13.278;2023-04-30T03:12:29;11.05;;;4.97;;
46322;SDS011;32044;52.386;13.278;2023-04-30T03:14:57;8.15;;;4.20;;
46322;SDS011;32044;52.386;13.278;2023-04-30T03:17:24;9.80;;;4.50;;
46322;SDS011;32044;52.386;13.278;2023-04-30T03:19:52;6.70;;;3.88;;
46322;SDS011;32044;52.386;13.278;2023-04-30T03:22:20;11.45;;;4.30;;
46322;SDS011;32044;52.386;13.278;2023-04-30T03:24:50;13.00;;;4.47;;
46322;SDS011;32044;52.386;13.278;2023-04-30T03:27:17;10.52;;;4.75;;
46322;SDS011;32044;52.386;13.278;2023-04-30T03:29:45;11.32;;;4.30;;
46322;SDS011;32044;52.386;13.278;2023-04-30T03:32:12;11.20;;;4.93;;
46322;SDS011;32044;52.386;13.278;2023-04-30T03:34:40;10.07;;;4.78;;
46322;SDS011;32044;52.386;13.278;2023-04-30T03:37:07;12.57;;;5.03;;
46322;SDS011;32044;52.386;13.278;2023-04-30T03:39:35;10.93;;;4.03;;
46322;SDS011;32044;52.386;13.278;2023-04-30T03:42:04;6.80;;;4.18;;
46322;SDS011;32044;52.386;13.278;2023-04-30T03:44:31;20.25;;;4.57;;
46322;SDS011;32044;52.386;13.278;2023-04-30T03:46:59;8.02;;;4.40;;
46322;SDS011;32044;52.386;13.278;2023-04-30T03:49:26;10.15;;;5.07;;
46322;SDS011;32044;52.386;13.278;2023-04-30T03:51:54;16.15;;;4.68;;
46322;SDS011;32044;52.386;13.278;2023-04-30T03:54:21;12.60;;;4.50;;
46322;SDS011;32044;52.386;13.278;2023-04-30T03:56:49;12.55;;;4.55;;
46322;SDS011;32044;52.386;13.278;2023-04-30T03:59:19;9.45;;;4.75;;
46322;SDS011;32044;52.386;13.278;2023-04-30T04:01:46;16.42;;;5.30;;
46322;SDS011;32044;52.386;13.278;2023-04-30T04:04:14;11.57;;;4.68;;
46322;SDS011;32044;52.386;13.278;2023-04-30T04:06:42;12.05;;;4.63;;
46322;SDS011;32044;52.386;13.278;2023-04-30T04:09:09;10.98;;;4.75;;
46322;SDS011;32044;52.386;13.278;2023-04-30T04:11:37;14.07;;;4.88;;
46322;SDS011;32044;52.386;13.278;2023-04-30T04:14:04;9.93;;;5.15;;
46322;SDS011;32044;52.386;13.278;2023-04-30T04:16:33;13.23;;;4.47;;
46322;SDS011;32044;52.386;13.278;2023-04-30T04:19:01;9.15;;;4.63;;
46322;SDS011;32044;52.386;13.278;2023-04-30T04:21:29;11.82;;;4.22;;
46322;SDS011;32044;52.386;13.278;2023-04-30T04:23:57;18.85;;;5.03;;
46322;SDS011;32044;52.386;13.278;2023-04-30T04:26:24;15.15;;;4.78;;
46322;SDS011;32044;52.386;13.278;2023-04-30T04:28:53;11.20;;;4.85;;
46322;SDS011;32044;52.386;13.278;2023-04-30T04:31:21;14.15;;;5.03;;
46322;SDS011;32044;52.386;13.278;2023-04-30T04:33:50;13.68;;;4.75;;
46322;SDS011;32044;52.386;13.278;2023-04-30T04:36:23;12.57;;;4.53;;
46322;SDS011;32044;52.386;13.278;2023-04-30T04:38:52;13.32;;;4.95;;
46322;SDS011;32044;52.386;13.278;2023-04-30T04:41:20;15.30;;;4.78;;
46322;SDS011;32044;52.386;13.278;2023-04-30T04:43:48;13.70;;;5.30;;
46322;SDS011;32044;52.386;13.278;2023-04-30T04:46:17;11.05;;;4.70;;
46322;SDS011;32044;52.386;13.278;2023-04-30T04:48:46;16.38;;;4.78;;
46322;SDS011;32044;52.386;13.278;2023-04-30T04:51:14;11.65;;;4.60;;
46322;SDS011;32044;52.386;13.278;2023-04-30T04:53:42;15.98;;;4.72;;
46322;SDS011;32044;52.386;13.278;2023-04-30T04:56:09;11.63;;;4.93;;
46322;SDS011;32044;52.386;13.278;2023-04-30T04:58:38;18.23;;;4.72;;
46322;SDS011;32044;52.386;13.278;2023-04-30T05:01:05;13.52;;;4.40;;
46322;SDS011;32044;52.386;13.278;2023-04-30T05:03:33;15.32;;;5.05;;
46322;SDS011;32044;52.386;13.278;2023-04-30T05:06:02;14.52;;;5.20;;
46322;SDS011;32044;52.386;13.278;2023-04-30T05:08:31;9.13;;;4.60;;
46322;SDS011;32044;52.386;13.278;2023-04-30T05:10:59;14.73;;;4.88;;
46322;SDS011;32044;52.386;13.278;2023-04-30T05:13:27;8.68;;;4.57;;
46322;SDS011;32044;52.386;13.278;2023-04-30T05:15:54;12.60;;;4.35;;
46322;SDS011;32044;52.386;13.278;2023-04-30T05:18:22;10.60;;;3.90;;
46322;SDS011;32044;52.386;13.278;2023-04-30T05:20:49;11.60;;;4.35;;
46322;SDS011;32044;52.386;13.278;2023-04-30T05:23:17;18.40;;;4.22;;
46322;SDS011;32044;52.386;13.278;2023-04-30T05:25:46;23.85;;;5.28;;
46322;SDS011;32044;52.386;13.278;2023-04-30T05:28:18;11.38;;;4.32;;
46322;SDS011;32044;52.386;13.278;2023-04-30T05:30:45;13.52;;;4.75;;
46322;SDS011;32044;52.386;13.278;2023-04-30T05:33:13;14.15;;;4.90;;
46322;SDS011;32044;52.386;13.278;2023-04-30T05:35:41;21.02;;;4.82;;
46322;SDS011;32044;52.386;13.278;2023-04-30T05:38:08;16.25;;;4.90;;
46322;SDS011;32044;52.386;13.278;2023-04-30T05:40:36;17.45;;;5.15;;
46322;SDS011;32044;52.386;13.278;2023-04-30T05:43:04;17.25;;;4.60;;
46322;SDS011;32044;52.386;13.278;2023-04-30T05:45:32;18.73;;;5.20;;
46322;SDS011;32044;52.386;13.278;2023-04-30T05:47:59;16.58;;;4.60;;
46322;SDS011;32044;52.386;13.278;2023-04-30T05:50:27;10.57;;;4.70;;
46322;SDS011;32044;52.386;13.278;2023-04-30T05:52:55;10.82;;;4.15;;
46322;SDS011;32044;52.386;13.278;2023-04-30T05:55:23;13.15;;;4.18;;
46322;SDS011;32044;52.386;13.278;2023-04-30T05:57:50;18.20;;;4.40;;
46322;SDS011;32044;52.386;13.278;2023-04-30T06:00:19;14.13;;;4.30;;
46322;SDS011;32044;52.386;13.278;2023-04-30T06:02:47;18.80;;;4.93;;
46322;SDS011;32044;52.386;13.278;2023-04-30T06:05:14;18.92;;;4.90;;
46322;SDS011;32044;52.386;13.278;2023-04-30T06:07:42;14.32;;;4.38;;
46322;SDS011;32044;52.386;13.278;2023-04-30T06:10:09;17.63;;;4.32;;
46322;SDS011;32044;52.386;13.278;2023-04-30T06:12:37;14.07;;;4.55;;
46322;SDS011;32044;52.386;13.278;2023-04-30T06:15:05;12.27;;;4.75;;
46322;SDS011;32044;52.386;13.278;2023-04-30T06:17:35;11.57;;;4.28;;
46322;SDS011;32044;52.386;13.278;2023-04-30T06:20:03;12.13;;;4.32;;
46322;SDS011;32044;52.386;13.278;2023-04-30T06:22:32;15.13;;;4.60;;
46322;SDS011;32044;52.386;13.278;2023-04-30T06:25:00;13.05;;;4.15;;
46322;SDS011;32044;52.386;13.278;2023-04-30T06:27:27;13.88;;;4.60;;
46322;SDS011;32044;52.386;13.278;2023-04-30T06:29:57;13.55;;;4.50;;
46322;SDS011;32044;52.386;13.278;2023-04-30T06:32:26;14.52;;;4.22;;
46322;SDS011;32044;52.386;13.278;2023-04-30T06:34:55;12.75;;;4.35;;
46322;SDS011;32044;52.386;13.278;2023-04-30T06:37:22;8.20;;;4.15;;
46322;SDS011;32044;52.386;13.278;2023-04-30T06:39:50;18.67;;;4.72;;
46322;SDS011;32044;52.386;13.278;2023-04-30T06:42:18;16.73;;;4.47;;
46322;SDS011;32044;52.386;13.278;2023-04-30T06:44:45;23.50;;;4.80;;
46322;SDS011;32044;52.386;13.278;2023-04-30T06:47:13;16.30;;;4.75;;
46322;SDS011;32044;52.386;13.278;2023-04-30T06:49:40;13.73;;;4.55;;
46322;SDS011;32044;52.386;13.278;2023-04-30T06:52:09;12.40;;;4.35;;
46322;SDS011;32044;52.386;13.278;2023-04-30T06:54:37;13.13;;;4.15;;
46322;SDS011;32044;52.386;13.278;2023-04-30T06:57:04;15.68;;;4.32;;
46322;SDS011;32044;52.386;13.278;2023-04-30T06:59:32;14.07;;;3.88;;
46322;SDS011;32044;52.386;13.278;2023-04-30T07:01:59;18.95;;;4.47;;
46322;SDS011;32044;52.386;13.278;2023-04-30T07:04:27;14.20;;;4.43;;
46322;SDS011;32044;52.386;13.278;2023-04-30T07:06:54;17.30;;;4.78;;
46322;SDS011;32044;52.386;13.278;2023-04-30T07:09:23;11.68;;;4.47;;
46322;SDS011;32044;52.386;13.278;2023-04-30T07:11:51;12.38;;;3.95;;
46322;SDS011;32044;52.386;13.278;2023-04-30T07:14:19;12.02;;;4.20;;
46322;SDS011;32044;52.386;13.278;2023-04-30T07:16:48;16.38;;;4.60;;
46322;SDS011;32044;52.386;13.278;2023-04-30T07:19:16;14.07;;;4.20;;
46322;SDS011;32044;52.386;13.278;2023-04-30T07:21:43;8.80;;;4.80;;
46322;SDS011;32044;52.386;13.278;2023-04-30T07:24:11;17.08;;;4.28;;
46322;SDS011;32044;52.386;13.278;2023-04-30T07:26:40;13.73;;;4.22;;
46322;SDS011;32044;52.386;13.278;2023-04-30T07:29:07;8.88;;;3.95;;
46322;SDS011;32044;52.386;13.278;2023-04-30T07:31:35;15.35;;;4.20;;
46322;SDS011;32044;52.386;13.278;2023-04-30T07:34:03;15.80;;;4.13;;
46322;SDS011;32044;52.386;13.278;2023-04-30T07:36:30;12.77;;;3.65;;
46322;SDS011;32044;52.386;13.278;2023-04-30T07:38:58;10.52;;;4.38;;
46322;SDS011;32044;52.386;13.278;2023-04-30T07:41:25;13.25;;;3.95;;
46322;SDS011;32044;52.386;13.278;2023-04-30T07:43:54;13.07;;;3.80;;
46322;SDS011;32044;52.386;13.278;2023-04-30T07:46:22;9.93;;;4.22;;
46322;SDS011;32044;52.386;13.278;2023-04-30T07:48:51;16.30;;;3.88;;
46322;SDS011;32044;52.386;13.278;2023-04-30T07:51:18;14.80;;;3.83;;
46322;SDS011;32044;52.386;13.278;2023-04-30T07:53:46;13.13;;;3.85;;
46322;SDS011;32044;52.386;13.278;2023-04-30T07:56:13;8.73;;;3.15;;
46322;SDS011;32044;52.386;13.278;2023-04-30T07:58:41;11.30;;;3.80;;
46322;SDS011;32044;52.386;13.278;2023-04-30T08:01:10;11.32;;;3.28;;
46322;SDS011;32044;52.386;13.278;2023-04-30T08:03:37;9.15;;;3.28;;
46322;SDS011;32044;52.386;13.278;2023-04-30T08:06:05;9.43;;;2.90;;
46322;SDS011;32044;52.386;13.278;2023-04-30T08:08:33;6.93;;;2.90;;
46322;SDS011;32044;52.386;13.278;2023-04-30T08:11:00;10.73;;;3.45;;
46322;SDS011;32044;52.386;13.278;2023-04-30T08:13:28;10.13;;;3.60;;
46322;SDS011;32044;52.386;13.278;2023-04-30T08:15:56;6.10;;;2.60;;
46322;SDS011;32044;52.386;13.278;2023-04-30T08:18:24;10.57;;;2.90;;
46322;SDS011;32044;52.386;13.278;2023-04-30T08:20:52;10.57;;;3.10;;
46322;SDS011;32044;52.386;13.278;2023-04-30T08:23:19;10.73;;;3.38;;
46322;SDS011;32044;52.386;13.278;2023-04-30T08:25:47;12.10;;;3.25;;
46322;SDS011;32044;52.386;13.278;2023-04-30T08:28:14;8.18;;;3.00;;
46322;SDS011;32044;52.386;13.278;2023-04-30T08:30:42;10.90;;;3.28;;
46322;SDS011;32044;52.386;13.278;2023-04-30T08:33:10;13.52;;;4.13;;
46322;SDS011;32044;52.386;13.278;2023-04-30T08:35:39;9.18;;;3.10;;
46322;SDS011;32044;52.386;13.278;2023-04-30T08:38:06;10.15;;;3.53;;
46322;SDS011;32044;52.386;13.278;2023-04-30T08:40:34;7.03;;;2.78;;
46322;SDS011;32044;52.386;13.278;2023-04-30T08:43:17;10.95;;;3.13;;
46322;SDS011;32044;52.386;13.278;2023-04-30T08:45:44;8.50;;;2.95;;
46322;SDS011;32044;52.386;13.278;2023-04-30T08:48:12;12.43;;;2.65;;
46322;SDS011;32044;52.386;13.278;2023-04-30T08:50:43;10.57;;;3.70;;
46322;SDS011;32044;52.386;13.278;2023-04-30T08:53:11;8.30;;;2.58;;
46322;SDS011;32044;52.386;13.278;2023-04-30T08:55:42;5.60;;;2.65;;
46322;SDS011;32044;52.386;13.278;2023-04-30T08:58:10;11.98;;;3.78;;
46322;SDS011;32044;52.386;13.278;2023-04-30T09:00:37;9.25;;;3.10;;
46322;SDS011;32044;52.386;13.278;2023-04-30T09:03:06;12.32;;;3.55;;
46322;SDS011;32044;52.386;13.278;2023-04-30T09:05:35;6.30;;;3.10;;
46322;SDS011;32044;52.386;13.278;2023-04-30T09:08:04;11.27;;;3.60;;
46322;SDS011;32044;52.386;13.278;2023-04-30T09:10:34;10.60;;;3.20;;
46322;SDS011;32044;52.386;13.278;2023-04-30T09:13:02;9.77;;;3.47;;
46322;SDS011;32044;52.386;13.278;2023-04-30T09:15:31;7.15;;;3.05;;
46322;SDS011;32044;52.386;13.278;2023-04-30T09:18:06;7.03;;;2.78;;
46322;SDS011;32044;52.386;13.278;2023-04-30T09:20:35;9.63;;;2.55;;
46322;SDS011;32044;52.386;13.278;2023-04-30T09:23:07;4.75;;;2.67;;
46322;SDS011;32044;52.386;13.278;2023-04-30T09:25:39;5.53;;;2.60;;
46322;SDS011;32044;52.386;13.278;2023-04-30T09:28:08;8.68;;;2.58;;
46322;SDS011;32044;52.386;13.278;2023-04-30T09:30:36;8.00;;;2.88;;
46322;SDS011;32044;52.386;13.278;2023-04-30T09:33:04;6.15;;;2.30;;
46322;SDS011;32044;52.386;13.278;2023-04-30T09:35:36;9.73;;;3.60;;
46322;SDS011;32044;52.386;13.278;2023-04-30T09:40:51;4.90;;;2.28;;
46322;SDS011;32044;52.386;13.278;2023-04-30T09:43:18;8.77;;;2.40;;
46322;SDS011;32044;52.386;13.278;2023-04-30T09:45:46;9.50;;;3.05;;
46322;SDS011;32044;52.386;13.278;2023-04-30T09:48:16;5.50;;;1.98;;
46322;SDS011;32044;52.386;13.278;2023-04-30T09:50:44;5.22;;;2.40;;
46322;SDS011;32044;52.386;13.278;2023-04-30T09:53:13;4.43;;;2.05;;
46322;SDS011;32044;52.386;13.278;2023-04-30T09:55:43;5.90;;;2.40;;
46322;SDS011;32044;52.386;13.278;2023-04-30T09:58:11;7.57;;;2.80;;
46322;SDS011;32044;52.386;13.278;2023-04-30T10:00:40;6.18;;;2.35;;
46322;SDS011;32044;52.386;13.278;2023-04-30T10:03:08;6.78;;;2.72;;
46322;SDS011;32044;52.386;13.278;2023-04-30T10:05:40;5.22;;;2.30;;
46322;SDS011;32044;52.386;13.278;2023-04-30T10:08:17;8.45;;;2.78;;
46322;SDS011;32044;52.386;13.278;2023-04-30T10:10:49;8.18;;;2.95;;
46322;SDS011;32044;52.386;13.278;2023-04-30T10:13:18;4.68;;;2.60;;
46322;SDS011;32044;52.386;13.278;2023-04-30T10:15:47;7.90;;;2.85;;
46322;SDS011;32044;52.386;13.278;2023-04-30T10:18:16;7.60;;;2.75;;
46322;SDS011;32044;52.386;13.278;2023-04-30T10:20:47;8.57;;;2.60;;
46322;SDS011;32044;52.386;13.278;2023-04-30T10:23:15;6.40;;;2.42;;
46322;SDS011;32044;52.386;13.278;2023-04-30T10:25:45;7.90;;;2.70;;
46322;SDS011;32044;52.386;13.278;2023-04-30T10:28:12;6.60;;;2.40;;
46322;SDS011;32044;52.386;13.278;2023-04-30T10:30:41;6.80;;;2.78;;
46322;SDS011;32044;52.386;13.278;2023-04-30T10:33:11;6.13;;;2.78;;
46322;SDS011;32044;52.386;13.278;2023-04-30T10:35:46;8.07;;;2.60;;
46322;SDS011;32044;52.386;13.278;2023-04-30T10:38:17;5.55;;;2.80;;
46322;SDS011;32044;52.386;13.278;2023-04-30T10:40:49;6.50;;;2.35;;
46322;SDS011;32044;52.386;13.278;2023-04-30T10:43:17;5.22;;;2.20;;
46322;SDS011;32044;52.386;13.278;2023-04-30T10:45:47;3.50;;;2.08;;
46322;SDS011;32044;52.386;13.278;2023-04-30T10:48:15;7.38;;;2.30;;
46322;SDS011;32044;52.386;13.278;2023-04-30T10:50:49;7.55;;;2.53;;
46322;SDS011;32044;52.386;13.278;2023-04-30T10:53:18;7.07;;;3.03;;
46322;SDS011;32044;52.386;13.278;2023-04-30T10:55:48;10.45;;;2.78;;
46322;SDS011;32044;52.386;13.278;2023-04-30T10:58:24;7.63;;;2.78;;
46322;SDS011;32044;52.386;13.278;2023-04-30T11:03:27;6.38;;;2.65;;
46322;SDS011;32044;52.386;13.278;2023-04-30T11:05:55;8.23;;;2.63;;
46322;SDS011;32044;52.386;13.278;2023-04-30T11:08:38;5.63;;;2.70;;
46322;SDS011;32044;52.386;13.278;2023-04-30T11:11:08;8.07;;;2.53;;
46322;SDS011;32044;52.386;13.278;2023-04-30T11:13:40;6.00;;;2.85;;
46322;SDS011;32044;52.386;13.278;2023-04-30T11:16:09;6.22;;;2.95;;
46322;SDS011;32044;52.386;13.278;2023-04-30T11:18:40;4.70;;;2.10;;
46322;SDS011;32044;52.386;13.278;2023-04-30T11:21:08;7.95;;;2.90;;
46322;SDS011;32044;52.386;13.278;2023-04-30T11:23:40;7.43;;;2.70;;
46322;SDS011;32044;52.386;13.278;2023-04-30T11:26:10;5.90;;;2.72;;
46322;SDS011;32044;52.386;13.278;2023-04-30T11:28:38;6.28;;;2.67;;
46322;SDS011;32044;52.386;13.278;2023-04-30T11:31:17;5.07;;;2.58;;
46322;SDS011;32044;52.386;13.278;2023-04-30T11:33:44;7.03;;;3.15;;
46322;SDS011;32044;52.386;13.278;2023-04-30T11:36:12;9.43;;;2.95;;
46322;SDS011;32044;52.386;13.278;2023-04-30T11:38:40;5.45;;;2.15;;
46322;SDS011;32044;52.386;13.278;2023-04-30T11:41:10;7.22;;;3.03;;
46322;SDS011;32044;52.386;13.278;2023-04-30T11:43:39;5.93;;;2.58;;
46322;SDS011;32044;52.386;13.278;2023-04-30T11:46:07;7.68;;;2.75;;
46322;SDS011;32044;52.386;13.278;2023-04-30T11:48:36;7.35;;;2.78;;
46322;SDS011;32044;52.386;13.278;2023-04-30T11:51:13;5.63;;;2.30;;
46322;SDS011;32044;52.386;13.278;2023-04-30T11:53:41;7.55;;;2.92;;
46322;SDS011;32044;52.386;13.278;2023-04-30T11:56:09;6.57;;;2.88;;
46322;SDS011;32044;52.386;13.278;2023-04-30T11:58:38;6.05;;;2.50;;
46322;SDS011;32044;52.386;13.278;2023-04-30T12:01:06;6.68;;;2.72;;
46322;SDS011;32044;52.386;13.278;2023-04-30T12:03:39;4.88;;;2.70;;
46322;SDS011;32044;52.386;13.278;2023-04-30T12:06:08;16.52;;;3.25;;
46322;SDS011;32044;52.386;13.278;2023-04-30T12:08:36;5.30;;;2.60;;
46322;SDS011;32044;52.386;13.278;2023-04-30T12:11:04;5.70;;;2.08;;
46322;SDS011;32044;52.386;13.278;2023-04-30T12:13:50;7.82;;;3.53;;
46322;SDS011;32044;52.386;13.278;2023-04-30T12:16:18;10.10;;;2.72;;
46322;SDS011;32044;52.386;13.278;2023-04-30T12:18:46;5.75;;;2.70;;
46322;SDS011;32044;52.386;13.278;2023-04-30T12:21:16;10.50;;;3.15;;
46322;SDS011;32044;52.386;13.278;2023-04-30T12:23:44;6.32;;;2.55;;
46322;SDS011;32044;52.386;13.278;2023-04-30T12:26:11;6.38;;;2.55;;
46322;SDS011;32044;52.386;13.278;2023-04-30T12:28:39;4.82;;;2.70;;
46322;SDS011;32044;52.386;13.278;2023-04-30T12:31:08;7.60;;;2.78;;
46322;SDS011;32044;52.386;13.278;2023-04-30T12:33:35;5.22;;;2.38;;
46322;SDS011;32044;52.386;13.278;2023-04-30T12:36:03;7.53;;;2.60;;
46322;SDS011;32044;52.386;13.278;2023-04-30T12:38:31;7.47;;;2.90;;
46322;SDS011;32044;52.386;13.278;2023-04-30T12:40:59;5.47;;;2.50;;
46322;SDS011;32044;52.386;13.278;2023-04-30T12:43:30;6.47;;;2.65;;
46322;SDS011;32044;52.386;13.278;2023-04-30T12:45:58;5.10;;;2.55;;
46322;SDS011;32044;52.386;13.278;2023-04-30T12:48:27;7.43;;;2.65;;
46322;SDS011;32044;52.386;13.278;2023-04-30T12:50:55;5.47;;;2.78;;
46322;SDS011;32044;52.386;13.278;2023-04-30T12:53:25;6.43;;;3.10;;
46322;SDS011;32044;52.386;13.278;2023-04-30T12:56:05;6.60;;;2.60;;
46322;SDS011;32044;52.386;13.278;2023-04-30T12:58:34;12.40;;;2.80;;
46322;SDS011;32044;52.386;13.278;2023-04-30T13:01:04;7.10;;;2.83;;
46322;SDS011;32044;52.386;13.278;2023-04-30T13:03:33;4.82;;;2.33;;
46322;SDS011;32044;52.386;13.278;2023-04-30T13:06:01;7.00;;;2.60;;
46322;SDS011;32044;52.386;13.278;2023-04-30T13:08:30;5.15;;;2.67;;
46322;SDS011;32044;52.386;13.278;2023-04-30T13:11:11;5.38;;;2.75;;
46322;SDS011;32044;52.386;13.278;2023-04-30T13:13:38;4.55;;;2.35;;
46322;SDS011;32044;52.386;13.278;2023-04-30T13:16:07;4.68;;;2.65;;
46322;SDS011;32044;52.386;13.278;2023-04-30T13:18:36;6.50;;;2.65;;
46322;SDS011;32044;52.386;13.278;2023-04-30T13:21:03;9.48;;;3.13;;
46322;SDS011;32044;52.386;13.278;2023-04-30T13:23:31;7.28;;;3.10;;
46322;SDS011;32044;52.386;13.278;2023-04-30T13:26:14;7.85;;;2.75;;
46322;SDS011;32044;52.386;13.278;2023-04-30T13:28:41;6.47;;;3.15;;
46322;SDS011;32044;52.386;13.278;2023-04-30T13:31:09;6.30;;;2.50;;
46322;SDS011;32044;52.386;13.278;2023-04-30T13:33:38;6.22;;;2.60;;
46322;SDS011;32044;52.386;13.278;2023-04-30T13:36:06;4.35;;;2.75;;
46322;SDS011;32044;52.386;13.278;2023-04-30T13:38:34;8.40;;;2.78;;
46322;SDS011;32044;52.386;13.278;2023-04-30T13:41:01;7.97;;;3.00;;
46322;SDS011;32044;52.386;13.278;2023-04-30T13:43:29;5.57;;;2.90;;
46322;SDS011;32044;52.386;13.278;2023-04-30T13:45:56;7.13;;;2.88;;
46322;SDS011;32044;52.386;13.278;2023-04-30T13:48:24;5.88;;;2.83;;
46322;SDS011;32044;52.386;13.278;2023-04-30T13:50:53;8.10;;;2.63;;
46322;SDS011;32044;52.386;13.278;2023-04-30T13:53:21;5.82;;;2.47;;
46322;SDS011;32044;52.386;13.278;2023-04-30T13:55:48;10.35;;;2.67;;
46322;SDS011;32044;52.386;13.278;2023-04-30T13:58:16;8.25;;;2.97;;
46322;SDS011;32044;52.386;13.278;2023-04-30T14:00:44;6.50;;;2.63;;
46322;SDS011;32044;52.386;13.278;2023-04-30T14:03:11;6.63;;;2.92;;
46322;SDS011;32044;52.386;13.278;2023-04-30T14:05:39;11.27;;;3.15;;
46322;SDS011;32044;52.386;13.278;2023-04-30T14:08:08;9.48;;;2.90;;
46322;SDS011;32044;52.386;13.278;2023-04-30T14:10:36;8.52;;;2.90;;
46322;SDS011;32044;52.386;13.278;2023-04-30T14:13:03;8.70;;;2.90;;
46322;SDS011;32044;52.386;13.278;2023-04-30T14:15:31;5.18;;;2.40;;
46322;SDS011;32044;52.386;13.278;2023-04-30T14:17:59;9.00;;;3.28;;
46322;SDS011;32044;52.386;13.278;2023-04-30T14:20:27;10.65;;;3.25;;
46322;SDS011;32044;52.386;13.278;2023-04-30T14:22:54;6.32;;;2.58;;
46322;SDS011;32044;52.386;13.278;2023-04-30T14:25:23;6.90;;;2.90;;
46322;SDS011;32044;52.386;13.278;2023-04-30T14:27:51;5.32;;;2.67;;
46322;SDS011;32044;52.386;13.278;2023-04-30T14:30:18;4.38;;;2.63;;
46322;SDS011;32044;52.386;13.278;2023-04-30T14:32:46;13.02;;;3.88;;
46322;SDS011;32044;52.386;13.278;2023-04-30T14:35:13;8.43;;;2.92;;
46322;SDS011;32044;52.386;13.278;2023-04-30T14:37:41;6.18;;;2.85;;
46322;SDS011;32044;52.386;13.278;2023-04-30T14:40:09;8.00;;;3.10;;
46322;SDS011;32044;52.386;13.278;2023-04-30T14:42:38;6.85;;;3.17;;
46322;SDS011;32044;52.386;13.278;2023-04-30T14:45:06;7.20;;;2.95;;